Balcarres, Canada
Current Conditions -  °F | °C
As of 4:42 AM on Friday 31 Oct 2014 (Local Time) from CYQR Reporting Station
Broken Clouds Broken Clouds  
Wind Chill:   Ceiling: 900
Heat Index: 23°   Visibility: 15mi
Dew Point: 21°   Wind: 26mph
Humidity: 93%   Direction: 150°SSE
Pressure: 30.3"   Gusts: 33mph
Location:  50.8°N, 103.55°W
Report Text: CYQR 311042Z 15023G29KT 15SM BKN009 M05/M06 A3030 RMK SC7 SLP293
Loading
Personal Weather Stations






























Interactive Weather Map
Tropical Storm Tracking
New forecast layout! Learn more

10-Day Weather Forecast

Advertisements
Track Severe Weather on mobile